createdAt,value
2023-01-23T00:01:42.289Z,98398.80
2023-01-23T00:04:14.193Z,98404.80
2023-01-23T00:06:43.837Z,98401.53
2023-01-23T00:09:13.553Z,98391.86
2023-01-23T00:11:42.651Z,98392.30
2023-01-23T00:14:11.840Z,98391.94
2023-01-23T00:16:41.023Z,98399.44
2023-01-23T00:19:10.743Z,98390.02
2023-01-23T00:21:39.933Z,98393.95
2023-01-23T00:24:12.388Z,98395.51
2023-01-23T00:26:41.487Z,98391.86
2023-01-23T00:29:10.510Z,98387.73
2023-01-23T00:31:40.095Z,98381.35
2023-01-23T00:34:13.207Z,98373.70
2023-01-23T00:36:44.903Z,98370.30
2023-01-23T00:39:19.645Z,98378.33
2023-01-23T00:41:50.017Z,98376.42
2023-01-23T00:44:19.478Z,98374.16
2023-01-23T00:46:49.315Z,98368.08
2023-01-23T00:49:18.592Z,98366.26
2023-01-23T00:51:47.703Z,98368.85
2023-01-23T00:54:17.654Z,98371.30
2023-01-23T00:56:46.565Z,98373.73
2023-01-23T00:59:15.496Z,98372.30
2023-01-23T01:01:44.879Z,98375.20
2023-01-23T01:04:14.993Z,98374.48
2023-01-23T01:06:44.121Z,98375.02
2023-01-23T01:09:12.904Z,98373.09
2023-01-23T01:11:42.098Z,98369.52
2023-01-23T01:14:11.796Z,98366.57
2023-01-23T01:16:45.651Z,98369.57
2023-01-23T01:19:17.236Z,98365.49
2023-01-23T01:21:46.717Z,98366.48
2023-01-23T01:24:15.615Z,98366.03
2023-01-23T01:26:44.668Z,98361.23
2023-01-23T01:29:13.243Z,98360.60
2023-01-23T01:31:41.851Z,98354.81
2023-01-23T01:34:10.554Z,98351.38
2023-01-23T01:36:39.439Z,98343.94
2023-01-23T01:39:08.375Z,98348.30
2023-01-23T01:41:37.230Z,98348.14
2023-01-23T01:44:07.265Z,98349.94
2023-01-23T01:46:36.056Z,98347.70
2023-01-23T01:49:25.743Z,98342.58
2023-01-23T01:52:04.984Z,98336.98
2023-01-23T01:54:40.020Z,98329.95
2023-01-23T01:57:12.243Z,98322.44
2023-01-23T01:59:50.487Z,98319.27
2023-01-23T02:02:44.242Z,98318.30
2023-01-23T02:05:19.842Z,98315.22
2023-01-23T02:08:01.768Z,98310.75
2023-01-23T02:10:30.830Z,98313.77
2023-01-23T02:13:21.179Z,98319.88
2023-01-23T02:15:50.254Z,98320.05
2023-01-23T02:18:19.756Z,98318.91
2023-01-23T02:20:51.562Z,98312.15
2023-01-23T02:23:29.256Z,98305.00
2023-01-23T02:26:03.645Z,98304.71
2023-01-23T02:28:41.775Z,98309.16
2023-01-23T02:31:11.563Z,98306.45
2023-01-23T02:33:40.304Z,98304.84
2023-01-23T02:36:09.405Z,98299.69
2023-01-23T02:39:07.623Z,98303.30
2023-01-23T02:41:39.700Z,98297.35
2023-01-23T02:44:29.946Z,98292.10
2023-01-23T02:47:05.893Z,98292.00
2023-01-23T02:49:34.648Z,98285.10
2023-01-23T02:52:04.211Z,98279.94
2023-01-23T02:54:33.664Z,98276.31
2023-01-23T02:57:02.972Z,98271.16
2023-01-23T02:59:50.682Z,98269.11
2023-01-23T03:02:20.233Z,98275.99
2023-01-23T03:04:49.453Z,98274.78
2023-01-23T03:07:18.814Z,98274.24
2023-01-23T03:09:49.157Z,98274.58
2023-01-23T03:12:18.108Z,98276.34
2023-01-23T03:14:47.172Z,98276.49
2023-01-23T03:17:16.573Z,98274.42
2023-01-23T03:19:45.995Z,98277.66
2023-01-23T03:22:15.239Z,98281.30
2023-01-23T03:24:44.377Z,98276.70
2023-01-23T03:27:13.708Z,98273.11
2023-01-23T03:30:00.846Z,98266.07
2023-01-23T03:32:31.219Z,98267.42
2023-01-23T03:35:00.455Z,98266.40
2023-01-23T03:37:29.056Z,98256.30
2023-01-23T03:40:16.545Z,98251.21
2023-01-23T03:42:45.446Z,98256.48
2023-01-23T03:45:14.391Z,98253.50
2023-01-23T03:47:43.351Z,98243.05
2023-01-23T03:50:12.222Z,98243.55
2023-01-23T03:52:40.964Z,98235.58
2023-01-23T03:55:10.620Z,98216.98
2023-01-23T03:57:39.443Z,98214.29
2023-01-23T04:00:09.681Z,98219.21
2023-01-23T04:02:38.878Z,98220.23
2023-01-23T04:05:08.054Z,98224.23
2023-01-23T04:07:36.929Z,98227.91
2023-01-23T04:10:05.969Z,98231.00
2023-01-23T04:12:35.389Z,98225.51
2023-01-23T04:15:04.358Z,98230.26
2023-01-23T04:17:33.344Z,98242.13
2023-01-23T04:20:02.061Z,98242.14
2023-01-23T04:22:31.152Z,98243.16
2023-01-23T04:24:59.941Z,98240.80
2023-01-23T04:27:28.804Z,98242.36
2023-01-23T04:29:58.484Z,98241.34
2023-01-23T04:32:27.423Z,98242.48
2023-01-23T04:34:56.239Z,98241.50
2023-01-23T04:37:24.996Z,98247.96
2023-01-23T04:39:53.994Z,98249.72
2023-01-23T04:42:22.884Z,98249.86
2023-01-23T04:44:51.957Z,98253.38
2023-01-23T04:47:20.938Z,98255.23
2023-01-23T04:49:49.855Z,98253.84
2023-01-23T04:52:18.803Z,98255.70
2023-01-23T04:54:47.695Z,98255.57
2023-01-23T04:57:16.972Z,98253.71
2023-01-23T04:59:45.512Z,98255.92
2023-01-23T05:02:14.646Z,98253.94
2023-01-23T05:04:43.262Z,98248.85
2023-01-23T05:07:13.241Z,98241.52
2023-01-23T05:09:42.057Z,98236.34
2023-01-23T05:12:10.613Z,98234.21
2023-01-23T05:14:39.323Z,98227.54
2023-01-23T05:17:08.028Z,98229.42
2023-01-23T05:19:36.642Z,98229.77
2023-01-23T05:22:05.368Z,98228.20
2023-01-23T05:24:34.372Z,98229.64
2023-01-23T05:27:03.351Z,98234.52
2023-01-23T05:29:32.564Z,98241.20
2023-01-23T05:32:01.716Z,98235.83
2023-01-23T05:34:30.656Z,98238.48
2023-01-23T05:36:59.355Z,98237.72
2023-01-23T05:39:28.224Z,98241.73
2023-01-23T05:41:57.089Z,98245.08
2023-01-23T05:44:26.156Z,98243.41
2023-01-23T05:46:55.095Z,98245.19
2023-01-23T05:49:23.907Z,98240.81
2023-01-23T05:51:52.708Z,98238.50
2023-01-23T05:54:21.679Z,98246.44
2023-01-23T05:56:50.515Z,98240.60
2023-01-23T05:59:19.625Z,98236.45
2023-01-23T06:01:48.471Z,98240.16
2023-01-23T06:04:17.099Z,98244.04
2023-01-23T06:06:45.968Z,98242.59
2023-01-23T06:09:14.870Z,98238.14
2023-01-23T06:11:43.992Z,98227.14
2023-01-23T06:14:12.853Z,98217.50
2023-01-23T06:16:41.589Z,98213.40
2023-01-23T06:19:11.085Z,98211.05
2023-01-23T06:21:39.705Z,98214.73
2023-01-23T06:24:08.946Z,98219.82
2023-01-23T06:26:38.158Z,98219.95
2023-01-23T06:29:07.686Z,98226.86
2023-01-23T06:31:37.473Z,98226.70
2023-01-23T06:34:07.308Z,98225.42
2023-01-23T06:36:36.651Z,98223.48
2023-01-23T06:39:06.764Z,98224.33
2023-01-23T06:41:36.033Z,98227.65
2023-01-23T06:44:05.248Z,98226.81
2023-01-23T06:46:35.457Z,98230.94
2023-01-23T06:49:06.214Z,98231.18
2023-01-23T06:51:35.580Z,98232.09
2023-01-23T06:54:04.897Z,98234.13
2023-01-23T06:56:33.876Z,98230.45
2023-01-23T06:59:02.696Z,98234.11
2023-01-23T07:01:31.704Z,98235.67
2023-01-23T07:04:00.405Z,98232.89
2023-01-23T07:06:31.783Z,98230.52
2023-01-23T07:09:01.599Z,98231.03
2023-01-23T07:11:30.815Z,98229.88
2023-01-23T07:13:59.677Z,98227.55
2023-01-23T07:16:28.446Z,98225.46
2023-01-23T07:19:01.859Z,98228.21
2023-01-23T07:21:30.578Z,98226.23
2023-01-23T07:23:59.785Z,98225.05
2023-01-23T07:26:28.619Z,98222.48
2023-01-23T07:28:57.648Z,98222.14
2023-01-23T07:31:26.398Z,98223.42
2023-01-23T07:33:55.218Z,98222.26
2023-01-23T07:36:23.859Z,98224.56
2023-01-23T07:38:52.429Z,98221.76
2023-01-23T07:41:20.928Z,98220.80
2023-01-23T07:43:49.915Z,98220.98
2023-01-23T07:46:18.774Z,98226.08
2023-01-23T07:48:47.383Z,98225.52
2023-01-23T07:51:16.061Z,98225.67
2023-01-23T07:53:44.743Z,98225.29
2023-01-23T07:56:13.972Z,98223.23
2023-01-23T07:58:42.782Z,98223.45
2023-01-23T08:01:12.854Z,98224.52
2023-01-23T08:03:41.836Z,98218.75
2023-01-23T08:06:11.031Z,98219.39
2023-01-23T08:08:40.263Z,98221.98
2023-01-23T08:11:12.299Z,98219.67
2023-01-23T08:13:41.376Z,98224.11
2023-01-23T08:16:13.479Z,98222.77
2023-01-23T08:18:42.649Z,98221.54
2023-01-23T08:21:11.711Z,98223.46
2023-01-23T08:23:41.421Z,98225.25
2023-01-23T08:26:14.242Z,98224.84
2023-01-23T08:28:44.084Z,98224.95
2023-01-23T08:31:13.838Z,98226.70
2023-01-23T08:33:43.204Z,98226.63
2023-01-23T08:36:13.918Z,98227.11
2023-01-23T08:38:43.266Z,98237.39
2023-01-23T08:41:12.613Z,98238.64
2023-01-23T08:43:42.315Z,98240.85
2023-01-23T08:46:11.780Z,98244.39
2023-01-23T08:48:42.045Z,98246.41
2023-01-23T08:51:13.763Z,98248.52
2023-01-23T08:53:43.019Z,98249.20
2023-01-23T08:56:17.364Z,98242.01
2023-01-23T08:58:46.997Z,98246.13
2023-01-23T09:01:22.133Z,98246.02
2023-01-23T09:03:51.272Z,98244.22
2023-01-23T09:06:22.457Z,98245.49
2023-01-23T09:08:51.591Z,98246.47
2023-01-23T09:11:21.307Z,98246.15
2023-01-23T09:13:52.980Z,98245.67
2023-01-23T09:16:23.222Z,98247.61
2023-01-23T09:18:52.308Z,98249.05
2023-01-23T09:21:21.636Z,98247.45
2023-01-23T09:23:50.720Z,98246.41
2023-01-23T09:26:21.182Z,98245.10
2023-01-23T09:28:51.060Z,98250.73
2023-01-23T09:31:20.341Z,98253.30
2023-01-23T09:33:50.171Z,98257.09
2023-01-23T09:36:20.629Z,98258.01
2023-01-23T09:38:56.659Z,98259.89
2023-01-23T09:41:30.546Z,98257.52
2023-01-23T09:44:10.502Z,98259.73
2023-01-23T09:46:52.223Z,98260.37
2023-01-23T09:49:49.312Z,98265.57
2023-01-23T09:52:24.239Z,98268.83
2023-01-23T09:55:14.308Z,98270.09
2023-01-23T09:57:56.235Z,98271.63
2023-01-23T10:00:34.140Z,98276.83
2023-01-23T10:03:12.850Z,98282.23
2023-01-23T10:06:01.243Z,98283.36
2023-01-23T10:08:40.115Z,98289.59
2023-01-23T10:11:18.066Z,98295.55
2023-01-23T10:14:03.017Z,98299.00
2023-01-23T10:17:02.823Z,98307.81
2023-01-23T10:19:53.393Z,98310.09
2023-01-23T10:22:51.937Z,98312.73
2023-01-23T10:25:28.280Z,98315.20
2023-01-23T10:28:10.932Z,98316.70
2023-01-23T10:30:43.366Z,98318.17
2023-01-23T10:33:16.949Z,98322.58
2023-01-23T10:36:09.728Z,98330.68
2023-01-23T10:38:49.553Z,98330.27
2023-01-23T10:41:21.790Z,98334.92
2023-01-23T10:43:55.130Z,98332.19
2023-01-23T10:46:51.702Z,98335.38
2023-01-23T10:49:37.085Z,98336.73
2023-01-23T10:52:27.169Z,98342.13
2023-01-23T10:54:56.478Z,98347.25
2023-01-23T10:57:29.282Z,98349.84
2023-01-23T11:00:18.445Z,98353.11
2023-01-23T11:02:47.213Z,98355.09
2023-01-23T11:05:51.614Z,98352.10
2023-01-23T11:08:49.866Z,98358.63
2023-01-23T11:11:29.480Z,98364.52
2023-01-23T11:14:17.552Z,98367.24
2023-01-23T11:16:46.833Z,98365.92
2023-01-23T11:19:25.835Z,98372.27
2023-01-23T11:22:05.792Z,98371.21
2023-01-23T11:24:41.394Z,98368.15
2023-01-23T11:27:28.932Z,98370.56
2023-01-23T11:30:27.118Z,98372.83
2023-01-23T11:33:01.742Z,98373.80
2023-01-23T11:35:32.847Z,98379.56
2023-01-23T11:38:06.596Z,98382.34
2023-01-23T11:40:36.943Z,98387.36
2023-01-23T11:43:16.220Z,98392.63
2023-01-23T11:45:47.124Z,98396.72
2023-01-23T11:48:34.642Z,98398.63
2023-01-23T11:51:39.669Z,98397.80
2023-01-23T11:54:20.850Z,98399.48
2023-01-23T11:57:02.780Z,98397.02
2023-01-23T11:59:48.924Z,98399.67
2023-01-23T12:02:40.779Z,98399.67
2023-01-23T12:06:03.053Z,98403.45
2023-01-23T12:08:50.371Z,98403.85
2023-01-23T12:11:25.193Z,98408.29
2023-01-23T12:14:13.599Z,98413.65
2023-01-23T12:17:05.588Z,98419.91
2023-01-23T12:19:43.564Z,98421.98
2023-01-23T12:22:50.735Z,98428.13
2023-01-23T12:25:40.706Z,98430.96
2023-01-23T12:28:45.353Z,98435.45
2023-01-23T12:31:27.861Z,98437.23
2023-01-23T12:34:03.709Z,98441.10
2023-01-23T12:37:08.595Z,98444.87
2023-01-23T12:39:56.752Z,98446.27
2023-01-23T12:42:33.147Z,98450.93
2023-01-23T12:45:13.925Z,98453.98
2023-01-23T12:48:01.850Z,98457.16
2023-01-23T12:50:53.086Z,98462.00
2023-01-23T12:53:24.149Z,98468.38
2023-01-23T12:56:07.338Z,98469.13
2023-01-23T12:58:43.423Z,98474.85
2023-01-23T13:01:42.364Z,98479.23
2023-01-23T13:04:48.688Z,98485.23
2023-01-23T13:07:27.575Z,98491.11
2023-01-23T13:10:06.507Z,98496.02
2023-01-23T13:12:36.539Z,98505.12
2023-01-23T13:15:22.719Z,98506.97
2023-01-23T13:18:02.854Z,98512.38
2023-01-23T13:21:14.376Z,98514.60
2023-01-23T13:23:43.604Z,98521.85
2023-01-23T13:26:23.430Z,98525.84
2023-01-23T13:29:07.074Z,98528.46
2023-01-23T13:31:42.702Z,98535.93
2023-01-23T13:34:18.252Z,98544.85
2023-01-23T13:36:53.009Z,98555.33
2023-01-23T13:39:27.422Z,98560.13
2023-01-23T13:42:22.750Z,98559.36
2023-01-23T13:45:17.603Z,98563.84
2023-01-23T14:23:30.860Z,98634.66
2023-01-23T14:25:59.362Z,98642.09
2023-01-23T14:28:29.264Z,98644.02
2023-01-23T14:31:05.137Z,98645.36
2023-01-23T14:33:52.425Z,98648.50
2023-01-23T14:36:23.417Z,98652.02
2023-01-23T14:38:53.076Z,98655.09
2023-01-23T14:41:31.744Z,98657.04
2023-01-23T14:44:04.790Z,98665.02
2023-01-23T14:46:40.653Z,98671.45
2023-01-23T14:49:11.126Z,98677.45
2023-01-23T14:51:40.663Z,98684.98
2023-01-23T14:54:22.966Z,98689.46
2023-01-23T14:56:56.760Z,98696.91
2023-01-23T14:59:31.727Z,98697.63
2023-01-23T15:02:21.945Z,98697.02
2023-01-23T15:05:11.041Z,98704.61
2023-01-23T15:08:27.301Z,98707.91
2023-01-23T15:11:00.988Z,98712.17
2023-01-23T15:13:37.843Z,98717.11
2023-01-23T15:16:20.939Z,98722.06
2023-01-23T15:19:03.641Z,98723.02
2023-01-23T15:21:41.645Z,98728.00
2023-01-23T15:24:10.363Z,98733.44
2023-01-23T15:26:43.898Z,98735.02
2023-01-23T15:29:13.633Z,98740.54
2023-01-23T15:31:45.801Z,98749.20
2023-01-23T15:34:14.949Z,98753.59
2023-01-23T15:36:50.914Z,98759.43
2023-01-23T15:39:19.613Z,98761.85
2023-01-23T15:41:55.826Z,98761.45
2023-01-23T15:44:28.085Z,98762.93
2023-01-23T15:47:04.298Z,98766.44
2023-01-23T15:49:36.014Z,98772.69
2023-01-23T15:52:22.265Z,98782.38
2023-01-23T15:54:54.209Z,98783.42
2023-01-23T15:57:23.408Z,98788.98
2023-01-23T15:59:52.599Z,98793.68
2023-01-23T16:02:33.187Z,98795.96
2023-01-23T16:05:03.855Z,98803.36
2023-01-23T16:07:35.936Z,98807.63
2023-01-23T16:10:20.850Z,98813.23
2023-01-23T16:12:51.541Z,98815.71
2023-01-23T16:15:26.374Z,98819.36
2023-01-23T16:17:56.511Z,98819.73
2023-01-23T16:20:32.944Z,98827.57
2023-01-23T16:23:14.238Z,98834.20
2023-01-23T16:25:46.183Z,98839.59
2023-01-23T16:28:18.569Z,98845.11
2023-01-23T16:30:50.243Z,98852.33
2023-01-23T16:33:21.053Z,98861.14
2023-01-23T16:35:53.473Z,98861.92
2023-01-23T16:38:27.064Z,98867.24
2023-01-23T16:40:59.998Z,98870.66
2023-01-23T16:43:29.472Z,98878.16
2023-01-23T16:45:58.433Z,98884.48
2023-01-23T16:48:28.547Z,98887.98
2023-01-23T16:51:14.250Z,98893.02
2023-01-23T16:53:49.480Z,98892.21
2023-01-23T16:56:35.224Z,98892.16
2023-01-23T16:59:12.880Z,98896.95
2023-01-23T17:01:44.255Z,98904.77
2023-01-23T17:04:16.994Z,98905.20
2023-01-23T17:06:46.147Z,98908.80
2023-01-23T17:09:16.932Z,98912.77
2023-01-23T17:11:54.472Z,98923.17
2023-01-23T17:14:31.440Z,98929.03
2023-01-23T17:17:08.853Z,98935.09
2023-01-23T17:19:42.037Z,98938.75
2023-01-23T17:22:30.965Z,98945.61
2023-01-23T17:25:00.806Z,98944.70
2023-01-23T17:27:36.260Z,98953.07
2023-01-23T17:30:25.751Z,98956.59
2023-01-23T17:32:58.410Z,98963.28
2023-01-23T17:35:35.665Z,98971.65
2023-01-23T17:38:04.871Z,98976.24
2023-01-23T17:40:34.430Z,98983.52
2023-01-23T17:43:04.036Z,98992.23
2023-01-23T17:45:34.350Z,98993.08
2023-01-23T17:48:04.411Z,98997.98
2023-01-23T17:50:33.832Z,99001.48
2023-01-23T17:53:03.388Z,99004.91
2023-01-23T17:55:33.387Z,99013.02
2023-01-23T17:58:02.579Z,99020.31
2023-01-23T18:00:31.598Z,99023.53
2023-01-23T18:03:02.923Z,99023.96
2023-01-23T18:05:32.301Z,99033.06
2023-01-23T18:08:01.366Z,99040.83
2023-01-23T18:10:31.115Z,99050.48
2023-01-23T18:13:48.011Z,99053.98
2023-01-23T18:16:50.571Z,99057.67
2023-01-23T18:19:25.548Z,99057.98
2023-01-23T18:21:57.662Z,99065.61
2023-01-23T18:24:28.870Z,99069.65
2023-01-23T18:27:10.192Z,99066.83
2023-01-23T18:30:05.272Z,99075.04
2023-01-23T18:32:40.097Z,99079.10
2023-01-23T18:35:21.325Z,99080.39
2023-01-23T18:38:21.548Z,99087.75
2023-01-23T18:40:59.830Z,99087.70
2023-01-23T18:43:43.039Z,99093.01
2023-01-23T18:46:18.968Z,99102.84
2023-01-23T18:48:50.219Z,99106.27
2023-01-23T18:51:41.288Z,99112.45
2023-01-23T18:54:38.552Z,99118.10
2023-01-23T18:57:21.293Z,99114.63
2023-01-23T19:00:38.018Z,99129.29
2023-01-23T19:03:15.520Z,99128.23
2023-01-23T19:05:47.922Z,99131.42
2023-01-23T19:08:33.109Z,99137.20
2023-01-23T19:11:24.881Z,99140.44
2023-01-23T19:13:59.439Z,99137.98
2023-01-23T19:16:34.173Z,99140.95
2023-01-23T19:19:25.990Z,99146.77
2023-01-23T19:21:56.387Z,99144.31
2023-01-23T19:24:27.647Z,99153.11
2023-01-23T19:26:57.907Z,99157.39
2023-01-23T19:29:27.263Z,99162.80
2023-01-23T19:32:05.011Z,99167.68
2023-01-23T19:34:35.834Z,99176.71
2023-01-23T19:37:06.233Z,99180.01
2023-01-23T19:39:35.539Z,99183.16
2023-01-23T19:42:05.554Z,99188.58
2023-01-23T19:44:35.151Z,99192.20
2023-01-23T19:47:07.321Z,99195.81
2023-01-23T19:49:36.658Z,99196.61
2023-01-23T19:52:05.811Z,99198.50
2023-01-23T19:54:34.751Z,99199.93
2023-01-23T19:57:04.316Z,99199.77
2023-01-23T19:59:33.679Z,99201.58
2023-01-23T20:02:02.980Z,99204.77
2023-01-23T20:04:32.354Z,99209.45
2023-01-23T20:07:01.538Z,99211.83
2023-01-23T20:09:30.813Z,99212.75
2023-01-23T20:12:02.002Z,99213.52
2023-01-23T20:14:31.664Z,99220.71
2023-01-23T20:17:02.088Z,99222.70
2023-01-23T20:19:31.491Z,99229.09
2023-01-23T20:22:00.220Z,99236.84
2023-01-23T20:24:29.288Z,99239.58
2023-01-23T20:26:58.222Z,99242.33
2023-01-23T20:29:26.884Z,99243.38
2023-01-23T20:31:56.531Z,99239.73
2023-01-23T20:34:26.834Z,99242.39
2023-01-23T20:36:56.107Z,99239.38
2023-01-23T20:39:25.444Z,99246.80
2023-01-23T20:41:54.591Z,99250.20
2023-01-23T20:44:23.874Z,99249.92
2023-01-23T20:46:53.118Z,99247.04
2023-01-23T20:49:23.911Z,99254.98
2023-01-23T20:51:53.371Z,99259.11
2023-01-23T20:54:22.953Z,99263.57
2023-01-23T20:56:52.099Z,99268.59
2023-01-23T20:59:23.424Z,99277.36
2023-01-23T21:02:10.736Z,99281.06
2023-01-23T21:04:40.931Z,99286.67
2023-01-23T21:07:09.772Z,99289.73
2023-01-23T21:09:38.692Z,99286.84
2023-01-23T21:12:08.023Z,99290.15
2023-01-23T21:14:37.216Z,99290.27
2023-01-23T21:17:07.026Z,99292.38
2023-01-23T21:19:38.450Z,99294.66
2023-01-23T21:22:07.931Z,99296.45
2023-01-23T21:24:38.192Z,99296.14
2023-01-23T21:27:07.685Z,99301.02
2023-01-23T21:29:38.418Z,99311.81
2023-01-23T21:32:07.330Z,99317.31
2023-01-23T21:34:36.318Z,99322.63
2023-01-23T21:37:07.771Z,99318.73
2023-01-23T21:39:36.908Z,99322.27
2023-01-23T21:42:06.092Z,99326.73
2023-01-23T21:44:35.907Z,99323.84
2023-01-23T21:47:05.579Z,99320.61
2023-01-23T21:49:36.549Z,99318.66
2023-01-23T21:52:06.536Z,99319.91
2023-01-23T21:54:36.413Z,99322.25
2023-01-23T21:57:07.611Z,99325.09
2023-01-23T21:59:37.267Z,99323.93
2023-01-23T22:02:07.597Z,99331.77
2023-01-23T22:04:37.129Z,99328.77
2023-01-23T22:07:07.302Z,99332.52
2023-01-23T22:09:36.246Z,99339.72
2023-01-23T22:12:05.802Z,99342.12
2023-01-23T22:14:35.008Z,99346.80
2023-01-23T22:17:03.866Z,99353.83
2023-01-23T22:19:32.952Z,99345.60
2023-01-23T22:22:02.200Z,99350.70
2023-01-23T22:24:31.632Z,99354.61
2023-01-23T22:27:04.642Z,99356.67
2023-01-23T22:29:33.404Z,99355.59
2023-01-23T22:32:02.697Z,99356.35
2023-01-23T22:34:32.390Z,99354.91
2023-01-23T22:37:01.641Z,99351.26
2023-01-23T22:39:31.674Z,99354.99
2023-01-23T22:42:02.706Z,99360.21
2023-01-23T22:44:31.729Z,99360.98
2023-01-23T22:47:01.623Z,99361.64
2023-01-23T22:49:31.640Z,99365.45
2023-01-23T22:52:00.330Z,99365.34
2023-01-23T22:54:29.584Z,99367.90
2023-01-23T22:56:58.600Z,99371.07
2023-01-23T22:59:27.491Z,99371.77
2023-01-23T23:01:56.062Z,99374.91
2023-01-23T23:04:24.649Z,99376.44
2023-01-23T23:06:53.411Z,99381.58
2023-01-23T23:09:22.137Z,99379.41
2023-01-23T23:11:52.217Z,99377.88
2023-01-23T23:14:21.160Z,99375.92
2023-01-23T23:16:49.924Z,99369.57
2023-01-23T23:19:18.840Z,99375.38
2023-01-23T23:21:47.818Z,99381.75
2023-01-23T23:24:16.804Z,99387.19
2023-01-23T23:26:46.014Z,99386.80
2023-01-23T23:29:16.210Z,99394.04
2023-01-23T23:31:45.393Z,99400.46
2023-01-23T23:34:13.966Z,99402.31
2023-01-23T23:36:42.905Z,99406.27
2023-01-23T23:39:12.064Z,99408.29
2023-01-23T23:41:40.901Z,99407.91
2023-01-23T23:44:09.835Z,99410.44
2023-01-23T23:46:38.779Z,99412.27
2023-01-23T23:49:07.415Z,99416.73
2023-01-23T23:51:36.421Z,99414.92
2023-01-23T23:54:05.354Z,99413.13
2023-01-23T23:56:35.106Z,99419.33
2023-01-23T23:59:04.139Z,99419.80
